Time;durP1;ratioP1;P1;durP2;ratioP2;P2;SDS_P1;SDS_P2;PMS_P1;PMS_P2;Temp;Humidity;BMP_temperature;BMP_pressure;BME280_temperature;BME280_humidity;BME280_pressure;Samples;Min_cycle;Max_cycle;Signal;HPM_P1;HPM_P2
2023/12/26 00:02:05;;;;;;;;;;;26.40;72.60;;;;;;5119259;23;20388;-50
2023/12/26 00:04:26;;;;;;;;;;;26.50;72.70;;;;;;5119783;23;19995;-50
2023/12/26 00:06:48;;;;;;;;;;;26.50;72.90;;;;;;5122001;23;19987;-54
2023/12/26 00:09:12;;;;;;;;;;;26.50;72.90;;;;;;5119995;23;19915;-50
2023/12/26 00:11:34;;;;;;;;;;;26.50;73.00;;;;;;5119670;23;19908;-44
2023/12/26 00:13:55;;;;;;;;;;;26.50;73.10;;;;;;5118785;23;19908;-51
2023/12/26 00:16:17;;;;;;;;;;;26.50;73.20;;;;;;5118513;23;19908;-48
2023/12/26 00:18:39;;;;;;;;;;;26.50;73.20;;;;;;5090080;23;19915;-51
2023/12/26 00:21:01;;;;;;;;;;;26.60;73.30;;;;;;5119136;23;19908;-51
2023/12/26 00:23:23;;;;;;;;;;;26.60;73.30;;;;;;5117896;23;19905;-49
2023/12/26 00:25:45;;;;;;;;;;;26.70;73.40;;;;;;5118894;23;19995;-49
2023/12/26 00:28:07;;;;;;;;;;;26.70;73.40;;;;;;5119774;23;19963;-53
2023/12/26 00:30:28;;;;;;;;;;;26.70;73.30;;;;;;5119603;23;19997;-51
2023/12/26 00:32:50;;;;;;;;;;;26.70;73.30;;;;;;5120245;23;19914;-49
2023/12/26 00:35:13;;;;;;;;;;;26.70;73.90;;;;;;5118211;23;19904;-52
2023/12/26 00:37:35;;;;;;;;;;;26.80;73.30;;;;;;5087784;23;19936;-54
2023/12/26 00:39:57;;;;;;;;;;;26.80;73.30;;;;;;5119574;23;19939;-49
2023/12/26 00:42:19;;;;;;;;;;;26.80;73.30;;;;;;5124588;23;19935;-45
2023/12/26 00:44:41;;;;;;;;;;;26.90;73.40;;;;;;5121901;23;20355;-50
2023/12/26 00:47:03;;;;;;;;;;;26.90;73.30;;;;;;5121980;23;20074;-50
2023/12/26 00:49:25;;;;;;;;;;;26.90;73.40;;;;;;5121567;23;19912;-44
2023/12/26 00:51:46;;;;;;;;;;;27.00;73.20;;;;;;5118710;23;19963;-52
2023/12/26 00:54:08;;;;;;;;;;;27.00;73.20;;;;;;5114612;23;20761;-48
2023/12/26 00:56:30;;;;;;;;;;;27.10;73.10;;;;;;5114618;23;19954;-48
2023/12/26 00:58:52;;;;;;;;;;;27.20;73.00;;;;;;5082357;23;20255;-48
2023/12/26 01:01:14;;;;;;;;;;;27.20;72.90;;;;;;5112635;23;20246;-45
2023/12/26 01:03:36;;;;;;;;;;;27.20;72.60;;;;;;5112926;23;19962;-45
2023/12/26 01:05:58;;;;;;;;;;;27.30;72.60;;;;;;5113617;23;19947;-45
2023/12/26 01:08:19;;;;;;;;;;;27.20;72.60;;;;;;5113222;23;20220;-47
2023/12/26 01:10:41;;;;;;;;;;;27.30;72.80;;;;;;5114466;23;20283;-46
2023/12/26 01:13:03;;;;;;;;;;;27.30;72.80;;;;;;5115283;23;19904;-48
2023/12/26 01:15:25;;;;;;;;;;;27.20;72.80;;;;;;5113316;23;20365;-50
2023/12/26 01:17:47;;;;;;;;;;;27.20;72.90;;;;;;5106011;23;19912;-47
2023/12/26 01:20:09;;;;;;;;;;;27.20;72.90;;;;;;5113754;23;19915;-50
2023/12/26 01:22:31;;;;;;;;;;;27.20;72.90;;;;;;5113342;23;19908;-47
2023/12/26 01:24:52;;;;;;;;;;;27.20;72.90;;;;;;5116451;23;19912;-46
2023/12/26 01:27:14;;;;;;;;;;;27.20;73.00;;;;;;5086184;23;19916;-47
2023/12/26 01:29:36;;;;;;;;;;;27.20;73.20;;;;;;5119096;23;19931;-44
2023/12/26 01:31:58;;;;;;;;;;;27.20;73.30;;;;;;5119367;23;20394;-46
2023/12/26 01:34:20;;;;;;;;;;;27.20;73.30;;;;;;5117888;23;19904;-46
2023/12/26 01:36:41;;;;;;;;;;;27.20;73.30;;;;;;5116460;23;20250;-46
2023/12/26 01:39:03;;;;;;;;;;;27.20;73.30;;;;;;5120356;23;19975;-46
2023/12/26 01:41:25;;;;;;;;;;;27.20;73.20;;;;;;5120161;23;19982;-44
2023/12/26 01:43:47;;;;;;;;;;;27.20;73.20;;;;;;5120571;23;20271;-45
2023/12/26 01:46:09;;;;;;;;;;;27.30;73.20;;;;;;5118512;23;19908;-44
2023/12/26 01:48:31;;;;;;;;;;;27.30;73.10;;;;;;5120566;23;19908;-46
2023/12/26 01:50:53;;;;;;;;;;;27.30;73.10;;;;;;5120084;23;20338;-48
2023/12/26 01:53:15;;;;;;;;;;;27.40;73.00;;;;;;5117774;23;19919;-44
2023/12/26 01:55:36;;;;;;;;;;;27.40;73.10;;;;;;5119603;23;19916;-45
2023/12/26 01:57:59;;;;;;;;;;;27.40;73.10;;;;;;5118826;23;19947;-46
2023/12/26 02:00:21;;;;;;;;;;;27.40;73.40;;;;;;5112431;23;19919;-49
2023/12/26 02:02:43;;;;;;;;;;;27.40;73.20;;;;;;5119300;23;19910;-46
2023/12/26 02:05:05;;;;;;;;;;;27.50;73.40;;;;;;5117357;23;19916;-48
2023/12/26 02:07:27;;;;;;;;;;;27.50;73.40;;;;;;5119284;23;20670;-50
2023/12/26 02:09:49;;;;;;;;;;;27.50;73.40;;;;;;5118053;23;19904;-46
2023/12/26 02:12:11;;;;;;;;;;;27.60;73.50;;;;;;5088348;23;20389;-47
2023/12/26 02:14:32;;;;;;;;;;;27.50;73.40;;;;;;5112313;23;19995;-49
2023/12/26 02:16:55;;;;;;;;;;;27.60;73.40;;;;;;5114065;23;20349;-49
2023/12/26 02:19:17;;;;;;;;;;;27.60;73.70;;;;;;5113056;23;19927;-45
2023/12/26 02:21:39;;;;;;;;;;;27.60;73.70;;;;;;5114399;23;19912;-44
2023/12/26 02:24:01;;;;;;;;;;;27.70;73.90;;;;;;5110839;23;19974;-51
2023/12/26 02:26:23;;;;;;;;;;;27.70;74.10;;;;;;5113484;23;20254;-49
2023/12/26 02:28:45;;;;;;;;;;;27.70;74.20;;;;;;5113731;23;19932;-45
2023/12/26 02:31:08;;;;;;;;;;;27.80;74.20;;;;;;5113558;23;19947;-46
2023/12/26 02:33:30;;;;;;;;;;;27.80;74.50;;;;;;5084880;23;19988;-44
2023/12/26 02:35:52;;;;;;;;;;;27.80;74.30;;;;;;5115450;23;20371;-48
2023/12/26 02:38:14;;;;;;;;;;;27.90;74.50;;;;;;5114780;23;19904;-48
2023/12/26 02:40:36;;;;;;;;;;;28.00;74.50;;;;;;5112876;23;19908;-51
2023/12/26 02:42:58;;;;;;;;;;;28.00;73.90;;;;;;5114587;23;20246;-50
2023/12/26 02:45:19;;;;;;;;;;;28.00;73.20;;;;;;5113495;23;19919;-47
2023/12/26 02:47:41;;;;;;;;;;;28.10;72.90;;;;;;5114926;23;19915;-51
2023/12/26 02:50:03;;;;;;;;;;;28.10;72.60;;;;;;5112023;23;20302;-50
2023/12/26 02:52:25;;;;;;;;;;;28.10;72.30;;;;;;5080469;23;20306;-49
2023/12/26 02:54:47;;;;;;;;;;;28.10;72.00;;;;;;5110119;23;19965;-47
2023/12/26 02:57:09;;;;;;;;;;;28.20;71.90;;;;;;5109830;23;20540;-52
2023/12/26 02:59:31;;;;;;;;;;;28.20;71.70;;;;;;5111953;23;19992;-52
2023/12/26 03:01:54;;;;;;;;;;;28.20;71.60;;;;;;5112764;23;19912;-47
2023/12/26 03:04:16;;;;;;;;;;;28.20;71.50;;;;;;5111120;23;19912;-48
2023/12/26 03:06:38;;;;;;;;;;;28.20;71.40;;;;;;5114400;23;19936;-49
2023/12/26 03:08:59;;;;;;;;;;;28.20;71.20;;;;;;5113089;23;20437;-47
2023/12/26 03:11:21;;;;;;;;;;;28.20;71.20;;;;;;5117271;23;19904;-48
2023/12/26 03:13:43;;;;;;;;;;;28.20;71.10;;;;;;5120764;23;20227;-52
2023/12/26 03:16:07;;;;;;;;;;;28.20;71.10;;;;;;5090685;23;20326;-49
2023/12/26 03:18:29;;;;;;;;;;;28.20;71.10;;;;;;5118753;23;19904;-49
2023/12/26 03:20:51;;;;;;;;;;;28.20;71.00;;;;;;5120569;23;19910;-52
2023/12/26 03:23:13;;;;;;;;;;;28.20;71.00;;;;;;5120885;23;19904;-51
2023/12/26 03:25:35;;;;;;;;;;;28.20;71.00;;;;;;5120835;23;19927;-47
2023/12/26 03:27:57;;;;;;;;;;;28.20;71.00;;;;;;5121109;23;19939;-48
2023/12/26 03:30:19;;;;;;;;;;;28.20;71.00;;;;;;5120642;23;20401;-55
2023/12/26 03:32:41;;;;;;;;;;;28.20;71.10;;;;;;5107373;23;20331;-50
2023/12/26 03:35:02;;;;;;;;;;;28.10;71.00;;;;;;5117788;23;19951;-49
2023/12/26 03:37:24;;;;;;;;;;;28.20;71.00;;;;;;5120492;23;20069;-54
2023/12/26 03:39:46;;;;;;;;;;;28.10;71.00;;;;;;5121226;23;20241;-52
2023/12/26 03:42:08;;;;;;;;;;;28.10;71.00;;;;;;5123153;23;20349;-54
2023/12/26 03:44:30;;;;;;;;;;;28.10;71.00;;;;;;5124262;23;19923;-51
2023/12/26 03:46:52;;;;;;;;;;;28.10;71.10;;;;;;5125213;23;19904;-51
2023/12/26 03:49:14;;;;;;;;;;;28.10;71.00;;;;;;5095008;23;19932;-51
2023/12/26 03:51:36;;;;;;;;;;;28.10;71.10;;;;;;5117900;23;19904;-50
2023/12/26 03:53:58;;;;;;;;;;;28.10;71.10;;;;;;5119821;23;20213;-52
2023/12/26 03:56:20;;;;;;;;;;;28.10;71.10;;;;;;5119069;23;20049;-47
2023/12/26 03:58:42;;;;;;;;;;;28.10;71.10;;;;;;5114141;23;20297;-50
2023/12/26 04:01:04;;;;;;;;;;;28.00;71.00;;;;;;5120887;23;19904;-52
2023/12/26 04:03:25;;;;;;;;;;;28.00;71.00;;;;;;5121022;23;20365;-52
2023/12/26 04:05:47;;;;;;;;;;;28.00;71.00;;;;;;5120798;23;19966;-46
2023/12/26 04:08:10;;;;;;;;;;;28.00;71.00;;;;;;5119656;23;19935;-47
2023/12/26 04:10:31;;;;;;;;;;;28.00;71.00;;;;;;5119147;23;19904;-50
2023/12/26 04:12:53;;;;;;;;;;;28.00;71.00;;;;;;5120911;23;20335;-46
2023/12/26 04:15:15;;;;;;;;;;;28.00;71.10;;;;;;5111662;23;20255;-52
2023/12/26 04:17:37;;;;;;;;;;;28.00;71.10;;;;;;5121424;23;20045;-47
2023/12/26 04:19:59;;;;;;;;;;;28.00;71.00;;;;;;5121649;23;19970;-50
2023/12/26 04:22:21;;;;;;;;;;;28.00;71.00;;;;;;5121005;23;19975;-52
2023/12/26 04:24:43;;;;;;;;;;;28.00;71.00;;;;;;5120339;23;19923;-51
2023/12/26 04:27:05;;;;;;;;;;;28.00;71.00;;;;;;5121219;23;19908;-47
2023/12/26 04:29:27;;;;;;;;;;;28.00;70.90;;;;;;5119379;23;20621;-47
2023/12/26 04:31:49;;;;;;;;;;;28.00;70.90;;;;;;5112703;23;19908;-49
2023/12/26 04:34:11;;;;;;;;;;;28.00;70.80;;;;;;5089392;23;20262;-50
2023/12/26 04:36:35;;;;;;;;;;;28.00;70.70;;;;;;5121172;23;20250;-49
2023/12/26 04:38:56;;;;;;;;;;;28.00;70.80;;;;;;5120604;23;19982;-51
2023/12/26 04:41:18;;;;;;;;;;;27.90;70.70;;;;;;5121065;23;20370;-46
2023/12/26 04:43:40;;;;;;;;;;;27.90;70.70;;;;;;5119135;23;19908;-49
2023/12/26 04:46:02;;;;;;;;;;;27.90;70.80;;;;;;5120630;23;19939;-47
2023/12/26 04:48:24;;;;;;;;;;;27.90;70.80;;;;;;5121186;23;19904;-51
2023/12/26 04:50:46;;;;;;;;;;;27.90;70.80;;;;;;5119973;23;19904;-48
2023/12/26 04:53:09;;;;;;;;;;;27.90;70.80;;;;;;5121218;23;20216;-48
2023/12/26 04:55:32;;;;;;;;;;;27.90;70.80;;;;;;5120081;23;20227;-51
2023/12/26 04:57:53;;;;;;;;;;;27.90;70.80;;;;;;5120256;23;19982;-49
2023/12/26 05:00:15;;;;;;;;;;;27.90;70.80;;;;;;5120355;23;19908;-51
2023/12/26 05:02:37;;;;;;;;;;;27.90;70.70;;;;;;5119537;23;19908;-54
2023/12/26 05:04:59;;;;;;;;;;;27.90;70.80;;;;;;5119787;23;20340;-50
2023/12/26 05:07:21;;;;;;;;;;;27.90;70.80;;;;;;5118967;23;19904;-47
2023/12/26 05:09:43;;;;;;;;;;;27.90;70.80;;;;;;5112306;23;20303;-52
2023/12/26 05:12:05;;;;;;;;;;;27.90;70.80;;;;;;5110806;23;19908;-46
2023/12/26 05:14:27;;;;;;;;;;;27.90;70.80;;;;;;5112701;23;20006;-49
2023/12/26 05:16:50;;;;;;;;;;;27.90;70.80;;;;;;5111372;23;19922;-50
2023/12/26 05:19:12;;;;;;;;;;;27.90;70.80;;;;;;5104584;23;19915;-50
2023/12/26 05:21:35;;;;;;;;;;;27.90;70.80;;;;;;5112957;23;20250;-47
2023/12/26 05:23:57;;;;;;;;;;;27.90;70.80;;;;;;5105441;23;19908;-47
2023/12/26 05:26:19;;;;;;;;;;;27.90;71.40;;;;;;5112498;23;20130;-50
2023/12/26 05:28:41;;;;;;;;;;;27.80;70.70;;;;;;5112007;23;20236;-47
2023/12/26 05:31:04;;;;;;;;;;;27.80;70.80;;;;;;5110261;23;20027;-47
2023/12/26 05:33:25;;;;;;;;;;;27.80;70.80;;;;;;5113453;23;19908;-51
2023/12/26 05:35:47;;;;;;;;;;;27.80;70.90;;;;;;5112995;23;19904;-48
2023/12/26 05:38:09;;;;;;;;;;;27.80;70.90;;;;;;5112868;23;19946;-47
2023/12/26 05:40:31;;;;;;;;;;;27.80;70.90;;;;;;5111669;23;20694;-52
2023/12/26 05:42:53;;;;;;;;;;;27.80;70.90;;;;;;5111082;23;19911;-51
2023/12/26 05:45:16;;;;;;;;;;;27.80;70.80;;;;;;5112329;23;19931;-53
2023/12/26 05:47:38;;;;;;;;;;;27.80;70.80;;;;;;5110199;23;19915;-49
2023/12/26 05:50:00;;;;;;;;;;;27.80;70.80;;;;;;5111807;23;19904;-54
2023/12/26 05:52:22;;;;;;;;;;;27.80;70.80;;;;;;5111358;23;19979;-52
2023/12/26 05:54:44;;;;;;;;;;;27.80;70.70;;;;;;5112635;23;19915;-53
2023/12/26 05:57:06;;;;;;;;;;;27.80;70.60;;;;;;5114412;23;20086;-49
2023/12/26 05:59:28;;;;;;;;;;;27.80;70.50;;;;;;5113036;23;19912;-52
2023/12/26 06:01:49;;;;;;;;;;;27.80;70.60;;;;;;5111021;23;19975;-54
2023/12/26 06:04:12;;;;;;;;;;;27.80;70.60;;;;;;5115163;23;19916;-49
2023/12/26 06:06:33;;;;;;;;;;;27.80;70.50;;;;;;5108433;23;19907;-52
2023/12/26 06:08:55;;;;;;;;;;;27.80;70.60;;;;;;5115116;23;20023;-53
2023/12/26 06:11:17;;;;;;;;;;;27.80;70.60;;;;;;5115947;23;20326;-54
2023/12/26 06:13:39;;;;;;;;;;;27.90;70.60;;;;;;5116362;23;20053;-51
2023/12/26 06:16:01;;;;;;;;;;;28.00;70.40;;;;;;5118160;23;19912;-48
2023/12/26 06:18:23;;;;;;;;;;;28.00;70.20;;;;;;5118563;23;20248;-48
2023/12/26 06:20:45;;;;;;;;;;;28.10;70.20;;;;;;5116068;23;19912;-54
2023/12/26 06:23:07;;;;;;;;;;;28.00;70.00;;;;;;5088202;23;20354;-50
2023/12/26 06:25:28;;;;;;;;;;;28.00;70.10;;;;;;5118518;23;19970;-47
2023/12/26 06:27:50;;;;;;;;;;;28.00;70.10;;;;;;5117426;23;19908;-49
2023/12/26 06:30:12;;;;;;;;;;;28.00;70.10;;;;;;5118804;23;19984;-49
2023/12/26 06:32:34;;;;;;;;;;;28.00;70.20;;;;;;5111893;23;19908;-47
2023/12/26 06:34:56;;;;;;;;;;;28.00;70.20;;;;;;5119336;23;19904;-49
2023/12/26 06:37:18;;;;;;;;;;;28.00;70.20;;;;;;5122010;23;20460;-47
2023/12/26 06:39:40;;;;;;;;;;;28.00;70.20;;;;;;5092853;23;19909;-50
2023/12/26 06:42:02;;;;;;;;;;;28.00;70.10;;;;;;5114400;23;20300;-48
2023/12/26 06:44:24;;;;;;;;;;;28.00;70.00;;;;;;5118915;23;20445;-51
2023/12/26 06:46:47;;;;;;;;;;;28.00;70.00;;;;;;5122681;23;19904;-48
2023/12/26 06:49:09;;;;;;;;;;;28.00;70.00;;;;;;5113165;23;19904;-52
2023/12/26 06:51:31;;;;;;;;;;;28.00;70.00;;;;;;5092575;23;19983;-52
2023/12/26 06:53:53;;;;;;;;;;;28.00;70.00;;;;;;5121683;23;19971;-51
2023/12/26 06:56:14;;;;;;;;;;;28.00;70.00;;;;;;5122238;23;19927;-52
2023/12/26 06:58:36;;;;;;;;;;;28.00;70.00;;;;;;5122801;23;19904;-53
2023/12/26 07:00:58;;;;;;;;;;;27.90;70.00;;;;;;5112089;23;19966;-48
2023/12/26 07:03:20;;;;;;;;;;;28.00;70.10;;;;;;5120307;23;19948;-50
2023/12/26 07:05:42;;;;;;;;;;;27.90;70.10;;;;;;5091911;23;19936;-51
2023/12/26 07:08:04;;;;;;;;;;;27.90;70.00;;;;;;5122479;23;19915;-50
2023/12/26 07:10:26;;;;;;;;;;;27.90;70.10;;;;;;5118827;23;19904;-51
2023/12/26 07:12:47;;;;;;;;;;;27.90;70.00;;;;;;5120003;23;20250;-54
2023/12/26 07:15:09;;;;;;;;;;;27.90;70.00;;;;;;5120049;23;19908;-50
2023/12/26 07:17:32;;;;;;;;;;;27.90;70.00;;;;;;5113917;23;19912;-49
2023/12/26 07:19:53;;;;;;;;;;;27.90;70.00;;;;;;5119068;23;19908;-50
2023/12/26 07:22:15;;;;;;;;;;;27.90;70.00;;;;;;5121125;23;20046;-48
2023/12/26 07:24:37;;;;;;;;;;;27.90;70.00;;;;;;5121197;23;20341;-48
2023/12/26 07:26:59;;;;;;;;;;;27.90;70.00;;;;;;5120526;23;20001;-53
2023/12/26 07:29:23;;;;;;;;;;;27.90;70.00;;;;;;5120944;23;19996;-52
2023/12/26 07:31:45;;;;;;;;;;;27.90;70.00;;;;;;5113367;23;19931;-53
2023/12/26 07:34:09;;;;;;;;;;;27.90;70.10;;;;;;5121994;23;19904;-48
2023/12/26 07:36:31;;;;;;;;;;;27.90;70.10;;;;;;5121302;23;19904;-49
2023/12/26 07:38:52;;;;;;;;;;;27.90;70.10;;;;;;5112284;23;19904;-53
2023/12/26 07:41:14;;;;;;;;;;;27.90;70.20;;;;;;5114561;23;20252;-52
2023/12/26 07:43:36;;;;;;;;;;;27.90;70.20;;;;;;5114359;23;19962;-52
2023/12/26 07:45:58;;;;;;;;;;;27.90;70.20;;;;;;5105592;23;19995;-54
2023/12/26 07:48:20;;;;;;;;;;;27.80;70.20;;;;;;5115231;23;20309;-53
2023/12/26 07:50:41;;;;;;;;;;;27.80;70.30;;;;;;5113404;23;20125;-51
2023/12/26 07:53:04;;;;;;;;;;;27.80;70.30;;;;;;5121669;23;19963;-52
2023/12/26 07:55:26;;;;;;;;;;;27.80;70.30;;;;;;5113249;23;19954;-49
2023/12/26 07:57:48;;;;;;;;;;;27.80;70.30;;;;;;5120284;23;19942;-52
2023/12/26 08:00:10;;;;;;;;;;;27.80;70.40;;;;;;5116752;23;19900;-54
2023/12/26 08:02:32;;;;;;;;;;;27.80;70.50;;;;;;5110670;23;19966;-49
2023/12/26 08:04:54;;;;;;;;;;;27.80;70.50;;;;;;5113505;23;19912;-53
2023/12/26 08:07:16;;;;;;;;;;;27.80;70.60;;;;;;5120157;23;19908;-49
2023/12/26 08:09:37;;;;;;;;;;;27.80;70.60;;;;;;5117754;23;20322;-48
2023/12/26 08:11:59;;;;;;;;;;;27.80;70.70;;;;;;5112580;23;19946;-54
2023/12/26 08:14:21;;;;;;;;;;;27.80;70.60;;;;;;5103916;23;19908;-51
2023/12/26 08:16:45;;;;;;;;;;;27.80;70.60;;;;;;5113119;23;19916;-50
2023/12/26 08:19:07;;;;;;;;;;;27.80;70.60;;;;;;5112616;23;20754;-50
2023/12/26 08:21:29;;;;;;;;;;;27.80;70.60;;;;;;5110652;23;20422;-51
2023/12/26 08:23:51;;;;;;;;;;;27.80;70.60;;;;;;5104152;23;19904;-51
2023/12/26 08:26:12;;;;;;;;;;;27.80;70.60;;;;;;5113362;23;19946;-49
2023/12/26 08:28:34;;;;;;;;;;;27.80;70.60;;;;;;5110766;23;20082;-53
2023/12/26 08:30:56;;;;;;;;;;;27.80;70.60;;;;;;5112350;23;19982;-50
2023/12/26 08:33:18;;;;;;;;;;;27.80;70.60;;;;;;5110311;23;19910;-52
2023/12/26 08:35:40;;;;;;;;;;;27.80;70.60;;;;;;5102375;23;19908;-48
2023/12/26 08:38:02;;;;;;;;;;;27.80;70.60;;;;;;5113226;23;20331;-52
2023/12/26 08:40:23;;;;;;;;;;;27.70;70.50;;;;;;5111306;23;20115;-49
2023/12/26 08:42:46;;;;;;;;;;;27.80;70.50;;;;;;5112137;23;19908;-48
2023/12/26 08:45:08;;;;;;;;;;;27.70;70.50;;;;;;5111097;23;19959;-48
2023/12/26 08:47:29;;;;;;;;;;;27.70;70.50;;;;;;5112160;23;20311;-50
2023/12/26 08:49:51;;;;;;;;;;;27.70;70.50;;;;;;5081128;23;19912;-52
2023/12/26 08:52:13;;;;;;;;;;;27.70;70.50;;;;;;5083308;23;20307;-52
2023/12/26 08:54:35;;;;;;;;;;;27.70;70.50;;;;;;5113042;23;19920;-47
2023/12/26 08:56:57;;;;;;;;;;;27.70;70.50;;;;;;5110431;23;19910;-50
2023/12/26 08:59:20;;;;;;;;;;;27.70;70.50;;;;;;5112036;23;19919;-52
2023/12/26 09:01:41;;;;;;;;;;;27.70;70.50;;;;;;5110760;23;19908;-49
2023/12/26 09:04:04;;;;;;;;;;;27.70;70.50;;;;;;5112580;23;19918;-52
2023/12/26 09:06:26;;;;;;;;;;;27.70;70.60;;;;;;5111535;23;19944;-54
2023/12/26 09:08:48;;;;;;;;;;;27.70;70.50;;;;;;5112170;23;19908;-51
2023/12/26 09:11:09;;;;;;;;;;;27.60;70.40;;;;;;5113277;23;19915;-49
2023/12/26 09:13:31;;;;;;;;;;;27.70;70.50;;;;;;5111866;23;19911;-48
2023/12/26 09:15:53;;;;;;;;;;;27.60;70.40;;;;;;5111032;23;19916;-50
2023/12/26 09:18:16;;;;;;;;;;;27.60;70.40;;;;;;5105711;23;19912;-52
2023/12/26 09:20:38;;;;;;;;;;;27.60;70.40;;;;;;5110378;23;20471;-51
2023/12/26 09:23:00;;;;;;;;;;;27.60;70.50;;;;;;5103964;23;20252;-49
2023/12/26 09:25:22;;;;;;;;;;;27.60;70.50;;;;;;5112017;23;20335;-50
2023/12/26 09:27:44;;;;;;;;;;;27.60;70.50;;;;;;5112275;23;20457;-52
2023/12/26 09:30:09;;;;;;;;;;;27.60;70.40;;;;;;5111271;23;19958;-50
2023/12/26 09:32:30;;;;;;;;;;;27.60;70.40;;;;;;5112296;23;19911;-50
2023/12/26 09:34:52;;;;;;;;;;;27.60;70.40;;;;;;5113328;23;19912;-53
2023/12/26 09:37:14;;;;;;;;;;;27.50;70.30;;;;;;5114335;23;20299;-48
2023/12/26 09:39:36;;;;;;;;;;;27.60;70.30;;;;;;5114382;23;19915;-52
2023/12/26 09:41:58;;;;;;;;;;;27.60;70.30;;;;;;5113723;23;19908;-49
2023/12/26 09:44:20;;;;;;;;;;;27.50;70.20;;;;;;5113376;23;19912;-46
2023/12/26 09:46:42;;;;;;;;;;;27.50;70.20;;;;;;5113483;23;20591;-53
2023/12/26 09:49:04;;;;;;;;;;;27.50;70.30;;;;;;5106326;23;19908;-48
2023/12/26 09:51:26;;;;;;;;;;;27.50;70.20;;;;;;5113206;23;19904;-48
2023/12/26 09:53:54;;;;;;;;;;;27.50;70.20;;;;;;5113650;23;20331;-50
2023/12/26 09:56:16;;;;;;;;;;;27.50;70.20;;;;;;5113674;23;20227;-50
2023/12/26 09:58:43;;;;;;;;;;;27.50;70.20;;;;;;5112998;23;19912;-50
2023/12/26 10:01:05;;;;;;;;;;;27.50;70.20;;;;;;5113446;23;19908;-49
2023/12/26 10:03:27;;;;;;;;;;;27.50;70.20;;;;;;5111767;23;19969;-50
2023/12/26 10:05:53;;;;;;;;;;;27.50;70.20;;;;;;5112754;23;19923;-50
2023/12/26 10:08:15;;;;;;;;;;;27.50;70.10;;;;;;5111579;23;19984;-52
2023/12/26 10:10:37;;;;;;;;;;;27.50;70.10;;;;;;5113138;23;19915;-52
2023/12/26 10:13:00;;;;;;;;;;;27.40;70.00;;;;;;5112460;23;20320;-46
2023/12/26 10:15:22;;;;;;;;;;;27.40;70.10;;;;;;5105742;23;19908;-50
2023/12/26 10:17:43;;;;;;;;;;;27.40;70.10;;;;;;5111797;23;19922;-48
2023/12/26 10:20:06;;;;;;;;;;;27.40;70.10;;;;;;5082968;23;19975;-52
2023/12/26 10:22:31;;;;;;;;;;;27.40;70.10;;;;;;5112660;23;20175;-50
2023/12/26 10:24:55;;;;;;;;;;;27.40;70.00;;;;;;5107116;23;19912;-48
2023/12/26 10:27:16;;;;;;;;;;;27.40;70.00;;;;;;5110659;23;20006;-51
2023/12/26 10:29:38;;;;;;;;;;;27.40;70.00;;;;;;5113393;23;20322;-48
2023/12/26 10:32:03;;;;;;;;;;;27.40;70.00;;;;;;5110197;23;19979;-51
2023/12/26 10:34:28;;;;;;;;;;;27.40;70.00;;;;;;5111802;23;19912;-50
2023/12/26 10:36:51;;;;;;;;;;;27.40;70.00;;;;;;5112734;23;19908;-50
2023/12/26 10:39:13;;;;;;;;;;;27.40;70.00;;;;;;5104660;23;19914;-53
2023/12/26 10:41:35;;;;;;;;;;;27.30;69.90;;;;;;5111330;23;19912;-50
2023/12/26 10:43:59;;;;;;;;;;;27.30;70.00;;;;;;5113147;23;19924;-54
2023/12/26 10:46:21;;;;;;;;;;;27.30;70.00;;;;;;5105373;23;20275;-51
2023/12/26 10:48:43;;;;;;;;;;;27.30;70.00;;;;;;5104608;23;19908;-53
2023/12/26 10:51:06;;;;;;;;;;;27.30;70.00;;;;;;5103069;23;20013;-50
2023/12/26 10:53:31;;;;;;;;;;;27.30;70.00;;;;;;5110684;23;20484;-53
2023/12/26 10:55:54;;;;;;;;;;;27.30;69.90;;;;;;5113060;23;19930;-52
2023/12/26 10:58:21;;;;;;;;;;;27.30;69.90;;;;;;5111656;23;19927;-49
2023/12/26 11:00:42;;;;;;;;;;;27.30;69.90;;;;;;5102443;23;20038;-52
2023/12/26 11:03:04;;;;;;;;;;;27.30;69.90;;;;;;5113022;23;20349;-50
2023/12/26 11:05:26;;;;;;;;;;;27.30;70.00;;;;;;5111284;23;19916;-48
2023/12/26 11:07:48;;;;;;;;;;;27.30;70.00;;;;;;5107976;23;19904;-52
2023/12/26 11:10:10;;;;;;;;;;;27.30;70.00;;;;;;5112442;23;19935;-48
2023/12/26 11:12:32;;;;;;;;;;;27.30;70.00;;;;;;5112657;23;19908;-49
2023/12/26 11:14:54;;;;;;;;;;;27.30;70.00;;;;;;5112390;23;19915;-50
2023/12/26 11:17:15;;;;;;;;;;;27.20;69.90;;;;;;5112318;23;20370;-55
2023/12/26 11:19:37;;;;;;;;;;;27.20;70.00;;;;;;5113368;23;19908;-50
2023/12/26 11:21:59;;;;;;;;;;;27.20;69.90;;;;;;5104333;23;19980;-48
2023/12/26 11:24:21;;;;;;;;;;;27.20;70.00;;;;;;5084829;23;19920;-51
2023/12/26 11:26:43;;;;;;;;;;;27.20;70.00;;;;;;5113496;23;19908;-53
2023/12/26 11:29:06;;;;;;;;;;;27.20;70.00;;;;;;5113096;23;19919;-48
2023/12/26 11:31:27;;;;;;;;;;;27.20;70.00;;;;;;5104859;23;19980;-48
2023/12/26 11:33:49;;;;;;;;;;;27.20;70.00;;;;;;5110239;23;20343;-49
2023/12/26 11:36:11;;;;;;;;;;;27.20;70.00;;;;;;5112133;23;20428;-50
2023/12/26 11:38:33;;;;;;;;;;;27.20;70.10;;;;;;5111719;23;20327;-55
2023/12/26 11:40:55;;;;;;;;;;;27.20;70.10;;;;;;5112608;23;20583;-52
2023/12/26 11:43:17;;;;;;;;;;;27.20;70.00;;;;;;5111854;23;19908;-52
2023/12/26 11:45:39;;;;;;;;;;;27.20;70.00;;;;;;5111364;23;20258;-56
2023/12/26 11:48:04;;;;;;;;;;;27.20;70.10;;;;;;5105000;23;19913;-55
2023/12/26 11:50:26;;;;;;;;;;;27.20;70.00;;;;;;5114630;23;19955;-55
2023/12/26 11:52:47;;;;;;;;;;;27.20;70.10;;;;;;5113882;23;19908;-48
2023/12/26 11:55:09;;;;;;;;;;;27.20;70.10;;;;;;5114477;23;20679;-48
2023/12/26 11:57:31;;;;;;;;;;;27.20;70.10;;;;;;5115337;23;19904;-50
2023/12/26 11:59:53;;;;;;;;;;;27.20;70.10;;;;;;5117481;23;19907;-56
2023/12/26 12:08:13;;;;;;;;;;;27.20;70.20;;;;;;5088444;23;19904;-48
2023/12/26 12:10:35;;;;;;;;;;;27.20;70.20;;;;;;5088175;23;19913;-52
2023/12/26 12:12:57;;;;;;;;;;;27.20;70.20;;;;;;5087700;23;20411;-48
2023/12/26 12:15:19;;;;;;;;;;;27.10;70.10;;;;;;5087682;23;19915;-49
2023/12/26 12:17:45;;;;;;;;;;;27.20;70.20;;;;;;5087448;23;19912;-47
2023/12/26 12:20:07;;;;;;;;;;;27.20;70.20;;;;;;5088049;23;19912;-51
2023/12/26 12:22:29;;;;;;;;;;;27.20;70.30;;;;;;5087936;23;19932;-49
2023/12/26 12:24:51;;;;;;;;;;;27.20;70.30;;;;;;5088701;23;19916;-48
2023/12/26 12:27:13;;;;;;;;;;;27.20;70.30;;;;;;5085148;23;20342;-46
2023/12/26 12:29:53;;;;;;;;;;;27.20;70.30;;;;;;5088377;23;19912;-51
2023/12/26 12:32:18;;;;;;;;;;;27.20;70.30;;;;;;5088205;23;19912;-46
2023/12/26 12:34:40;;;;;;;;;;;27.20;70.30;;;;;;5086144;23;19909;-45
2023/12/26 12:37:02;;;;;;;;;;;27.10;70.30;;;;;;5087826;23;19955;-47
2023/12/26 12:39:23;;;;;;;;;;;27.10;70.40;;;;;;5087734;23;19955;-46
2023/12/26 12:41:45;;;;;;;;;;;27.20;70.60;;;;;;5087173;23;19910;-48
2023/12/26 12:44:08;;;;;;;;;;;27.20;70.80;;;;;;5088673;23;19915;-50
2023/12/26 12:46:29;;;;;;;;;;;27.20;70.80;;;;;;5087897;23;19953;-48
2023/12/26 12:48:51;;;;;;;;;;;27.20;70.80;;;;;;5086628;23;19955;-49
2023/12/26 12:51:13;;;;;;;;;;;27.20;70.90;;;;;;5089078;23;19908;-46
2023/12/26 12:53:40;;;;;;;;;;;27.20;70.90;;;;;;5087717;23;19916;-47
2023/12/26 12:56:02;;;;;;;;;;;27.20;70.90;;;;;;5087893;23;19908;-45
2023/12/26 12:58:23;;;;;;;;;;;27.30;71.20;;;;;;5086144;23;19917;-45
2023/12/26 13:00:45;;;;;;;;;;;27.30;71.20;;;;;;5089250;23;19908;-47
2023/12/26 13:03:07;;;;;;;;;;;27.30;71.20;;;;;;5091716;23;19904;-48
2023/12/26 13:05:29;;;;;;;;;;;27.30;71.20;;;;;;5091338;23;19913;-45
2023/12/26 13:07:51;;;;;;;;;;;27.30;71.20;;;;;;5091659;23;20321;-50
2023/12/26 13:10:13;;;;;;;;;;;27.30;71.30;;;;;;5094148;23;20312;-49
2023/12/26 13:12:35;;;;;;;;;;;27.30;71.30;;;;;;5096503;23;19996;-45
2023/12/26 13:14:57;;;;;;;;;;;27.30;71.30;;;;;;5095431;23;20294;-46
2023/12/26 13:17:18;;;;;;;;;;;27.30;71.20;;;;;;5094044;23;19963;-47
2023/12/26 13:19:40;;;;;;;;;;;27.30;71.30;;;;;;5095575;23;19979;-46
2023/12/26 13:22:02;;;;;;;;;;;27.30;71.30;;;;;;5094362;23;20262;-46
2023/12/26 13:24:24;;;;;;;;;;;27.30;71.40;;;;;;5095324;23;19959;-46
2023/12/26 13:26:46;;;;;;;;;;;27.40;71.50;;;;;;5094122;23;19917;-45
2023/12/26 13:29:07;;;;;;;;;;;27.40;71.40;;;;;;5095940;23;19905;-45
2023/12/26 13:31:30;;;;;;;;;;;27.30;71.30;;;;;;5096889;23;19904;-45
2023/12/26 13:33:51;;;;;;;;;;;27.30;71.40;;;;;;5095363;23;19916;-45
2023/12/26 13:36:13;;;;;;;;;;;27.30;71.50;;;;;;5096204;23;19979;-46
2023/12/26 13:38:35;;;;;;;;;;;27.30;71.50;;;;;;5096472;23;19908;-45
2023/12/26 13:40:57;;;;;;;;;;;27.30;71.50;;;;;;5096207;23;19912;-45
2023/12/26 13:43:19;;;;;;;;;;;27.30;71.60;;;;;;5095330;23;20424;-48
2023/12/26 13:45:40;;;;;;;;;;;27.30;71.70;;;;;;5095651;23;19913;-42
2023/12/26 13:48:02;;;;;;;;;;;27.30;71.70;;;;;;5094864;23;19912;-44
2023/12/26 13:50:24;;;;;;;;;;;27.30;71.70;;;;;;5096238;23;19904;-44
2023/12/26 13:52:46;;;;;;;;;;;27.30;71.70;;;;;;5094532;23;19905;-44